sensor_id;sensor_type;location;lat;lon;timestamp;temperature;humidity
70214;DHT22;60138;55.808;37.078;2023-03-30T00:00:21;8.00;73.93
70214;DHT22;60138;55.808;37.078;2023-03-30T00:02:48;8.03;73.86
70214;DHT22;60138;55.808;37.078;2023-03-30T00:05:17;8.01;73.80
70214;DHT22;60138;55.808;37.078;2023-03-30T00:07:43;8.01;73.80
70214;DHT22;60138;55.808;37.078;2023-03-30T00:10:11;8.00;73.83
70214;DHT22;60138;55.808;37.078;2023-03-30T00:12:38;7.99;73.86
70214;DHT22;60138;55.808;37.078;2023-03-30T00:15:06;8.00;73.84
70214;DHT22;60138;55.808;37.078;2023-03-30T00:17:32;8.00;73.84
70214;DHT22;60138;55.808;37.078;2023-03-30T00:19:59;7.99;73.86
70214;DHT22;60138;55.808;37.078;2023-03-30T00:22:25;7.98;73.89
70214;DHT22;60138;55.808;37.078;2023-03-30T00:24:50;7.97;73.93
70214;DHT22;60138;55.808;37.078;2023-03-30T00:27:16;7.98;73.94
70214;DHT22;60138;55.808;37.078;2023-03-30T00:29:44;7.99;73.90
70214;DHT22;60138;55.808;37.078;2023-03-30T00:32:09;7.99;73.80
70214;DHT22;60138;55.808;37.078;2023-03-30T00:34:35;7.98;73.79
70214;DHT22;60138;55.808;37.078;2023-03-30T00:37:01;7.93;73.71
70214;DHT22;60138;55.808;37.078;2023-03-30T00:39:27;7.78;73.63
70214;DHT22;60138;55.808;37.078;2023-03-30T00:41:53;7.72;73.35
70214;DHT22;60138;55.808;37.078;2023-03-30T00:47:22;7.54;73.54
70214;DHT22;60138;55.808;37.078;2023-03-30T00:49:49;7.48;73.48
70214;DHT22;60138;55.808;37.078;2023-03-30T00:52:15;7.43;73.40
70214;DHT22;60138;55.808;37.078;2023-03-30T00:54:41;7.42;73.36
70214;DHT22;60138;55.808;37.078;2023-03-30T00:57:07;7.37;73.28
70214;DHT22;60138;55.808;37.078;2023-03-30T00:59:33;7.35;73.49
70214;DHT22;60138;55.808;37.078;2023-03-30T01:01:59;7.37;73.56
70214;DHT22;60138;55.808;37.078;2023-03-30T01:04:25;7.35;73.34
70214;DHT22;60138;55.808;37.078;2023-03-30T01:06:51;7.32;73.27
70214;DHT22;60138;55.808;37.078;2023-03-30T01:09:18;7.27;72.95
70214;DHT22;60138;55.808;37.078;2023-03-30T01:11:44;7.23;73.22
70214;DHT22;60138;55.808;37.078;2023-03-30T01:14:11;7.26;73.24
70214;DHT22;60138;55.808;37.078;2023-03-30T01:28:28;7.16;73.15
70214;DHT22;60138;55.808;37.078;2023-03-30T01:34:12;7.12;73.22
70214;DHT22;60138;55.808;37.078;2023-03-30T01:39:50;7.01;73.13
70214;DHT22;60138;55.808;37.078;2023-03-30T01:45:14;6.99;73.38
70214;DHT22;60138;55.808;37.078;2023-03-30T01:47:49;6.98;73.27
70214;DHT22;60138;55.808;37.078;2023-03-30T01:50:40;6.96;73.38
70214;DHT22;60138;55.808;37.078;2023-03-30T01:53:17;6.91;73.21
70214;DHT22;60138;55.808;37.078;2023-03-30T01:56:02;6.90;73.18
70214;DHT22;60138;55.808;37.078;2023-03-30T01:58:35;6.89;73.32
70214;DHT22;60138;55.808;37.078;2023-03-30T02:01:04;6.87;73.25
70214;DHT22;60138;55.808;37.078;2023-03-30T02:03:33;6.83;73.28
70214;DHT22;60138;55.808;37.078;2023-03-30T02:06:05;6.83;73.25
70214;DHT22;60138;55.808;37.078;2023-03-30T02:08:34;6.81;73.34
70214;DHT22;60138;55.808;37.078;2023-03-30T02:11:02;6.85;73.41
70214;DHT22;60138;55.808;37.078;2023-03-30T02:13:30;6.87;73.41
70214;DHT22;60138;55.808;37.078;2023-03-30T02:16:13;6.89;73.47
70214;DHT22;60138;55.808;37.078;2023-03-30T02:18:44;6.90;73.44
70214;DHT22;60138;55.808;37.078;2023-03-30T02:21:10;6.93;73.49
70214;DHT22;60138;55.808;37.078;2023-03-30T02:23:37;6.94;73.45
70214;DHT22;60138;55.808;37.078;2023-03-30T02:26:05;6.95;73.48
70214;DHT22;60138;55.808;37.078;2023-03-30T02:28:31;6.95;73.37
70214;DHT22;60138;55.808;37.078;2023-03-30T02:30:57;6.91;73.38
70214;DHT22;60138;55.808;37.078;2023-03-30T02:45:02;6.85;73.54
70214;DHT22;60138;55.808;37.078;2023-03-30T02:50:25;6.78;73.16
70214;DHT22;60138;55.808;37.078;2023-03-30T02:53:27;6.76;73.06
70214;DHT22;60138;55.808;37.078;2023-03-30T02:56:32;6.68;72.73
70214;DHT22;60138;55.808;37.078;2023-03-30T03:01:36;6.55;72.55
70214;DHT22;60138;55.808;37.078;2023-03-30T03:04:26;6.54;72.61
70214;DHT22;60138;55.808;37.078;2023-03-30T03:07:12;6.50;72.45
70214;DHT22;60138;55.808;37.078;2023-03-30T03:09:39;6.49;72.45
70214;DHT22;60138;55.808;37.078;2023-03-30T03:12:05;6.49;72.55
70214;DHT22;60138;55.808;37.078;2023-03-30T03:14:36;6.51;72.61
70214;DHT22;60138;55.808;37.078;2023-03-30T03:17:02;6.50;72.59
70214;DHT22;60138;55.808;37.078;2023-03-30T03:19:32;6.53;72.63
70214;DHT22;60138;55.808;37.078;2023-03-30T03:21:59;6.54;72.67
70214;DHT22;60138;55.808;37.078;2023-03-30T03:24:28;6.57;72.69
70214;DHT22;60138;55.808;37.078;2023-03-30T03:27:14;6.59;72.74
70214;DHT22;60138;55.808;37.078;2023-03-30T03:29:58;6.63;72.75
70214;DHT22;60138;55.808;37.078;2023-03-30T03:32:24;6.64;72.71
70214;DHT22;60138;55.808;37.078;2023-03-30T03:34:51;6.64;72.67
70214;DHT22;60138;55.808;37.078;2023-03-30T03:37:17;6.67;72.70
70214;DHT22;60138;55.808;37.078;2023-03-30T03:39:44;6.68;72.61
70214;DHT22;60138;55.808;37.078;2023-03-30T03:42:12;6.66;72.50
70214;DHT22;60138;55.808;37.078;2023-03-30T03:45:00;6.66;72.51
70214;DHT22;60138;55.808;37.078;2023-03-30T03:47:26;6.69;72.61
70214;DHT22;60138;55.808;37.078;2023-03-30T03:49:51;6.65;72.15
70214;DHT22;60138;55.808;37.078;2023-03-30T03:52:17;6.63;72.33
70214;DHT22;60138;55.808;37.078;2023-03-30T03:54:43;6.66;72.35
70214;DHT22;60138;55.808;37.078;2023-03-30T03:57:09;6.69;72.38
70214;DHT22;60138;55.808;37.078;2023-03-30T03:59:34;6.68;72.19
70214;DHT22;60138;55.808;37.078;2023-03-30T04:02:00;6.70;72.18
70214;DHT22;60138;55.808;37.078;2023-03-30T04:04:27;6.68;72.06
70214;DHT22;60138;55.808;37.078;2023-03-30T04:06:54;6.70;72.07
70214;DHT22;60138;55.808;37.078;2023-03-30T04:09:19;6.72;72.09
70214;DHT22;60138;55.808;37.078;2023-03-30T04:12:15;6.71;71.72
70214;DHT22;60138;55.808;37.078;2023-03-30T04:15:00;6.64;71.73
70214;DHT22;60138;55.808;37.078;2023-03-30T04:18:01;6.59;71.96
70214;DHT22;60138;55.808;37.078;2023-03-30T04:20:46;6.61;71.89
70214;DHT22;60138;55.808;37.078;2023-03-30T04:23:34;6.58;71.24
70214;DHT22;60138;55.808;37.078;2023-03-30T04:26:26;6.54;71.74
70214;DHT22;60138;55.808;37.078;2023-03-30T04:28:58;6.56;71.89
70214;DHT22;60138;55.808;37.078;2023-03-30T04:31:45;6.65;71.90
70214;DHT22;60138;55.808;37.078;2023-03-30T04:34:25;6.71;71.74
70214;DHT22;60138;55.808;37.078;2023-03-30T04:37:12;6.72;71.77
70214;DHT22;60138;55.808;37.078;2023-03-30T04:40:04;6.78;71.67
70214;DHT22;60138;55.808;37.078;2023-03-30T04:42:42;6.81;71.49
70214;DHT22;60138;55.808;37.078;2023-03-30T04:45:17;6.82;71.46
70214;DHT22;60138;55.808;37.078;2023-03-30T04:47:57;6.85;71.38
70214;DHT22;60138;55.808;37.078;2023-03-30T04:50:22;6.81;71.31
70214;DHT22;60138;55.808;37.078;2023-03-30T04:53:06;6.79;71.38
70214;DHT22;60138;55.808;37.078;2023-03-30T04:55:51;6.78;70.97
70214;DHT22;60138;55.808;37.078;2023-03-30T04:58:36;6.74;70.94
70214;DHT22;60138;55.808;37.078;2023-03-30T05:01:22;6.58;71.08
70214;DHT22;60138;55.808;37.078;2023-03-30T05:04:10;6.53;71.08
70214;DHT22;60138;55.808;37.078;2023-03-30T05:06:51;6.41;71.16
70214;DHT22;60138;55.808;37.078;2023-03-30T05:09:52;6.34;71.29
70214;DHT22;60138;55.808;37.078;2023-03-30T05:12:56;6.33;71.45
70214;DHT22;60138;55.808;37.078;2023-03-30T05:15:55;6.30;71.37
70214;DHT22;60138;55.808;37.078;2023-03-30T05:18:50;6.29;71.29
70214;DHT22;60138;55.808;37.078;2023-03-30T05:21:35;6.29;71.45
70214;DHT22;60138;55.808;37.078;2023-03-30T05:24:24;6.26;71.20
70214;DHT22;60138;55.808;37.078;2023-03-30T05:27:02;6.38;71.47
70214;DHT22;60138;55.808;37.078;2023-03-30T05:29:42;6.53;71.38
70214;DHT22;60138;55.808;37.078;2023-03-30T05:32:34;6.59;71.23
70214;DHT22;60138;55.808;37.078;2023-03-30T05:35:10;6.65;71.06
70214;DHT22;60138;55.808;37.078;2023-03-30T05:37:55;6.72;71.13
70214;DHT22;60138;55.808;37.078;2023-03-30T05:40:41;6.79;70.90
70214;DHT22;60138;55.808;37.078;2023-03-30T05:43:26;6.73;70.61
70214;DHT22;60138;55.808;37.078;2023-03-30T05:46:11;6.61;69.68
70214;DHT22;60138;55.808;37.078;2023-03-30T05:48:55;6.60;70.50
70214;DHT22;60138;55.808;37.078;2023-03-30T05:51:41;6.65;70.59
70214;DHT22;60138;55.808;37.078;2023-03-30T05:54:26;6.68;70.02
70214;DHT22;60138;55.808;37.078;2023-03-30T05:57:08;6.75;70.34
70214;DHT22;60138;55.808;37.078;2023-03-30T05:59:44;6.75;70.18
70214;DHT22;60138;55.808;37.078;2023-03-30T06:02:26;6.83;69.95
70214;DHT22;60138;55.808;37.078;2023-03-30T06:04:57;6.86;70.24
70214;DHT22;60138;55.808;37.078;2023-03-30T06:07:23;6.83;70.16
70214;DHT22;60138;55.808;37.078;2023-03-30T06:09:49;6.82;69.94
70214;DHT22;60138;55.808;37.078;2023-03-30T06:12:21;6.85;69.59
70214;DHT22;60138;55.808;37.078;2023-03-30T06:14:48;6.80;68.44
70214;DHT22;60138;55.808;37.078;2023-03-30T06:17:35;6.58;68.33
70214;DHT22;60138;55.808;37.078;2023-03-30T06:20:02;6.53;68.65
70214;DHT22;60138;55.808;37.078;2023-03-30T06:22:28;6.55;69.06
70214;DHT22;60138;55.808;37.078;2023-03-30T06:25:09;6.60;69.45
70214;DHT22;60138;55.808;37.078;2023-03-30T06:27:35;6.68;69.76
70214;DHT22;60138;55.808;37.078;2023-03-30T06:30:01;6.83;69.91
70214;DHT22;60138;55.808;37.078;2023-03-30T06:32:28;6.81;69.49
70214;DHT22;60138;55.808;37.078;2023-03-30T06:35:12;6.82;67.63
70214;DHT22;60138;55.808;37.078;2023-03-30T06:37:38;6.86;68.10
70214;DHT22;60138;55.808;37.078;2023-03-30T06:40:05;6.99;68.47
70214;DHT22;60138;55.808;37.078;2023-03-30T06:42:31;7.07;69.04
70214;DHT22;60138;55.808;37.078;2023-03-30T06:45:16;7.27;68.76
70214;DHT22;60138;55.808;37.078;2023-03-30T06:47:42;7.50;69.07
70214;DHT22;60138;55.808;37.078;2023-03-30T06:50:09;7.65;68.15
70214;DHT22;60138;55.808;37.078;2023-03-30T06:52:50;7.84;68.49
70214;DHT22;60138;55.808;37.078;2023-03-30T06:55:18;7.89;66.71
70214;DHT22;60138;55.808;37.078;2023-03-30T06:57:45;7.74;66.19
70214;DHT22;60138;55.808;37.078;2023-03-30T07:00:11;7.74;67.20
70214;DHT22;60138;55.808;37.078;2023-03-30T07:02:37;7.64;63.96
70214;DHT22;60138;55.808;37.078;2023-03-30T07:05:03;7.62;65.71
70214;DHT22;60138;55.808;37.078;2023-03-30T07:07:36;7.63;64.02
70214;DHT22;60138;55.808;37.078;2023-03-30T07:10:03;7.55;66.66
70214;DHT22;60138;55.808;37.078;2023-03-30T07:12:29;7.31;67.33
70214;DHT22;60138;55.808;37.078;2023-03-30T07:14:55;6.96;67.57
70214;DHT22;60138;55.808;37.078;2023-03-30T07:17:21;6.56;68.08
70214;DHT22;60138;55.808;37.078;2023-03-30T07:19:47;6.29;69.42
70214;DHT22;60138;55.808;37.078;2023-03-30T07:22:12;5.95;70.09
70214;DHT22;60138;55.808;37.078;2023-03-30T07:24:38;5.90;70.07
70214;DHT22;60138;55.808;37.078;2023-03-30T07:27:04;5.80;70.40
70214;DHT22;60138;55.808;37.078;2023-03-30T07:29:31;5.74;70.29
70214;DHT22;60138;55.808;37.078;2023-03-30T07:31:57;5.74;70.35
70214;DHT22;60138;55.808;37.078;2023-03-30T07:34:22;5.51;70.58
70214;DHT22;60138;55.808;37.078;2023-03-30T07:36:53;5.38;71.27
70214;DHT22;60138;55.808;37.078;2023-03-30T07:39:19;5.41;70.76
70214;DHT22;60138;55.808;37.078;2023-03-30T07:41:47;5.39;71.53
70214;DHT22;60138;55.808;37.078;2023-03-30T07:44:13;5.41;70.32
70214;DHT22;60138;55.808;37.078;2023-03-30T07:46:39;5.47;70.22
70214;DHT22;60138;55.808;37.078;2023-03-30T07:49:07;5.56;70.17
70214;DHT22;60138;55.808;37.078;2023-03-30T07:51:33;5.57;69.77
70214;DHT22;60138;55.808;37.078;2023-03-30T07:54:19;5.63;69.77
70214;DHT22;60138;55.808;37.078;2023-03-30T07:56:57;5.61;70.68
70214;DHT22;60138;55.808;37.078;2023-03-30T07:59:23;5.60;69.50
70214;DHT22;60138;55.808;37.078;2023-03-30T08:01:49;5.61;70.46
70214;DHT22;60138;55.808;37.078;2023-03-30T08:04:41;5.52;69.21
70214;DHT22;60138;55.808;37.078;2023-03-30T08:07:10;5.51;69.76
70214;DHT22;60138;55.808;37.078;2023-03-30T08:09:36;5.39;71.10
70214;DHT22;60138;55.808;37.078;2023-03-30T08:12:02;5.50;70.45
70214;DHT22;60138;55.808;37.078;2023-03-30T08:14:28;5.43;69.86
70214;DHT22;60138;55.808;37.078;2023-03-30T08:16:54;5.40;69.83
70214;DHT22;60138;55.808;37.078;2023-03-30T08:19:21;5.31;70.07
70214;DHT22;60138;55.808;37.078;2023-03-30T08:21:48;5.26;70.14
70214;DHT22;60138;55.808;37.078;2023-03-30T08:24:13;5.24;69.90
70214;DHT22;60138;55.808;37.078;2023-03-30T08:26:39;5.35;69.77
70214;DHT22;60138;55.808;37.078;2023-03-30T08:29:05;5.30;71.03
70214;DHT22;60138;55.808;37.078;2023-03-30T08:31:30;5.24;69.53
70214;DHT22;60138;55.808;37.078;2023-03-30T08:33:56;5.04;69.74
70214;DHT22;60138;55.808;37.078;2023-03-30T08:36:22;5.03;69.84
70214;DHT22;60138;55.808;37.078;2023-03-30T08:38:47;4.96;70.71
70214;DHT22;60138;55.808;37.078;2023-03-30T08:43:57;5.17;70.29
70214;DHT22;60138;55.808;37.078;2023-03-30T08:46:25;5.22;70.01
70214;DHT22;60138;55.808;37.078;2023-03-30T08:48:53;5.21;69.77
70214;DHT22;60138;55.808;37.078;2023-03-30T08:51:26;5.16;69.95
70214;DHT22;60138;55.808;37.078;2023-03-30T08:54:02;5.09;69.04
70214;DHT22;60138;55.808;37.078;2023-03-30T08:56:33;5.01;68.24
70214;DHT22;60138;55.808;37.078;2023-03-30T09:01:57;5.10;67.95
70214;DHT22;60138;55.808;37.078;2023-03-30T09:07:23;5.15;69.42
70214;DHT22;60138;55.808;37.078;2023-03-30T09:09:50;5.13;69.05
70214;DHT22;60138;55.808;37.078;2023-03-30T09:15:04;4.93;68.14
70214;DHT22;60138;55.808;37.078;2023-03-30T09:17:39;4.90;68.18
70214;DHT22;60138;55.808;37.078;2023-03-30T09:20:12;4.73;68.22
70214;DHT22;60138;55.808;37.078;2023-03-30T09:22:42;4.68;69.33
70214;DHT22;60138;55.808;37.078;2023-03-30T09:25:19;4.66;69.55
70214;DHT22;60138;55.808;37.078;2023-03-30T09:30:43;4.42;69.17
70214;DHT22;60138;55.808;37.078;2023-03-30T09:33:20;4.42;69.11
70214;DHT22;60138;55.808;37.078;2023-03-30T09:36:15;4.41;69.70
70214;DHT22;60138;55.808;37.078;2023-03-30T09:38:42;4.53;69.20
70214;DHT22;60138;55.808;37.078;2023-03-30T09:44:02;4.77;68.92
70214;DHT22;60138;55.808;37.078;2023-03-30T09:46:27;4.82;68.95
70214;DHT22;60138;55.808;37.078;2023-03-30T09:49:10;4.78;67.06
70214;DHT22;60138;55.808;37.078;2023-03-30T09:51:52;4.83;68.30
70214;DHT22;60138;55.808;37.078;2023-03-30T09:54:18;4.66;66.83
70214;DHT22;60138;55.808;37.078;2023-03-30T09:56:45;4.56;67.39
70214;DHT22;60138;55.808;37.078;2023-03-30T10:01:50;4.63;69.13
70214;DHT22;60138;55.808;37.078;2023-03-30T10:04:15;4.66;68.01
70214;DHT22;60138;55.808;37.078;2023-03-30T10:06:47;4.59;67.19
70214;DHT22;60138;55.808;37.078;2023-03-30T10:09:13;4.64;68.47
70214;DHT22;60138;55.808;37.078;2023-03-30T10:11:43;4.63;68.18
70214;DHT22;60138;55.808;37.078;2023-03-30T10:14:29;4.57;68.17
70214;DHT22;60138;55.808;37.078;2023-03-30T10:16:56;4.65;67.81
70214;DHT22;60138;55.808;37.078;2023-03-30T10:19:22;4.65;67.17
70214;DHT22;60138;55.808;37.078;2023-03-30T10:21:53;4.76;68.30
70214;DHT22;60138;55.808;37.078;2023-03-30T10:24:21;4.67;67.35
70214;DHT22;60138;55.808;37.078;2023-03-30T10:26:50;4.63;66.84
70214;DHT22;60138;55.808;37.078;2023-03-30T10:29:18;4.65;67.33
70214;DHT22;60138;55.808;37.078;2023-03-30T10:31:45;4.65;67.82
70214;DHT22;60138;55.808;37.078;2023-03-30T10:34:19;4.36;67.08
70214;DHT22;60138;55.808;37.078;2023-03-30T10:36:47;4.33;67.80
70214;DHT22;60138;55.808;37.078;2023-03-30T10:39:24;4.35;68.62
70214;DHT22;60138;55.808;37.078;2023-03-30T10:41:52;4.33;68.52
70214;DHT22;60138;55.808;37.078;2023-03-30T10:44:30;4.32;68.43
70214;DHT22;60138;55.808;37.078;2023-03-30T10:53:00;4.44;67.43
70214;DHT22;60138;55.808;37.078;2023-03-30T11:01:05;4.23;68.48
70214;DHT22;60138;55.808;37.078;2023-03-30T11:03:32;4.22;68.84
70214;DHT22;60138;55.808;37.078;2023-03-30T11:06:16;4.33;68.53
70214;DHT22;60138;55.808;37.078;2023-03-30T11:08:45;4.24;67.04
70214;DHT22;60138;55.808;37.078;2023-03-30T11:11:19;4.15;66.88
70214;DHT22;60138;55.808;37.078;2023-03-30T11:13:56;4.23;68.06
70214;DHT22;60138;55.808;37.078;2023-03-30T11:19:43;4.31;67.03
70214;DHT22;60138;55.808;37.078;2023-03-30T11:22:40;4.15;66.53
70214;DHT22;60138;55.808;37.078;2023-03-30T11:25:20;3.93;66.61
70214;DHT22;60138;55.808;37.078;2023-03-30T11:27:53;3.67;67.33
70214;DHT22;60138;55.808;37.078;2023-03-30T11:30:28;3.61;67.34
70214;DHT22;60138;55.808;37.078;2023-03-30T11:35:44;3.75;68.28
70214;DHT22;60138;55.808;37.078;2023-03-30T11:40:56;3.71;68.68
70214;DHT22;60138;55.808;37.078;2023-03-30T11:43:27;3.57;68.31
70214;DHT22;60138;55.808;37.078;2023-03-30T11:46:05;3.64;68.20
70214;DHT22;60138;55.808;37.078;2023-03-30T11:51:32;3.73;68.04
70214;DHT22;60138;55.808;37.078;2023-03-30T11:54:26;3.73;67.81
70214;DHT22;60138;55.808;37.078;2023-03-30T12:02:34;3.58;67.14
70214;DHT22;60138;55.808;37.078;2023-03-30T12:05:35;3.70;66.88
70214;DHT22;60138;55.808;37.078;2023-03-30T12:11:19;3.60;66.84
70214;DHT22;60138;55.808;37.078;2023-03-30T12:13:49;3.62;67.46
70214;DHT22;60138;55.808;37.078;2023-03-30T12:16:24;3.63;66.69
70214;DHT22;60138;55.808;37.078;2023-03-30T12:21:31;3.53;66.81
70214;DHT22;60138;55.808;37.078;2023-03-30T12:26:39;3.56;67.22
70214;DHT22;60138;55.808;37.078;2023-03-30T12:34:18;3.57;67.65
70214;DHT22;60138;55.808;37.078;2023-03-30T12:36:53;3.55;67.71
70214;DHT22;60138;55.808;37.078;2023-03-30T12:39:39;3.43;67.40
70214;DHT22;60138;55.808;37.078;2023-03-30T12:53:22;3.21;67.44
70214;DHT22;60138;55.808;37.078;2023-03-30T12:56:05;3.25;67.88
70214;DHT22;60138;55.808;37.078;2023-03-30T13:01:59;3.17;68.17
70214;DHT22;60138;55.808;37.078;2023-03-30T13:04:28;3.21;68.00
70214;DHT22;60138;55.808;37.078;2023-03-30T13:07:01;3.18;68.30
70214;DHT22;60138;55.808;37.078;2023-03-30T13:09:54;3.08;68.74
70214;DHT22;60138;55.808;37.078;2023-03-30T13:15:36;2.94;70.73
70214;DHT22;60138;55.808;37.078;2023-03-30T13:20:35;2.57;72.92
70214;DHT22;60138;55.808;37.078;2023-03-30T13:23:24;2.45;72.39
70214;DHT22;60138;55.808;37.078;2023-03-30T13:36:41;2.30;73.54
70214;DHT22;60138;55.808;37.078;2023-03-30T13:50:25;1.78;74.80
70214;DHT22;60138;55.808;37.078;2023-03-30T13:52:51;1.83;75.65
70214;DHT22;60138;55.808;37.078;2023-03-30T13:55:32;1.76;75.05
70214;DHT22;60138;55.808;37.078;2023-03-30T13:58:21;1.69;74.64
70214;DHT22;60138;55.808;37.078;2023-03-30T14:00:52;1.83;74.83
70214;DHT22;60138;55.808;37.078;2023-03-30T14:08:25;2.01;72.46
70214;DHT22;60138;55.808;37.078;2023-03-30T14:10:51;2.01;72.21
70214;DHT22;60138;55.808;37.078;2023-03-30T14:13:17;1.92;71.13
70214;DHT22;60138;55.808;37.078;2023-03-30T14:15:43;1.91;70.95
70214;DHT22;60138;55.808;37.078;2023-03-30T14:18:20;1.93;70.86
70214;DHT22;60138;55.808;37.078;2023-03-30T14:20:59;1.88;70.87
70214;DHT22;60138;55.808;37.078;2023-03-30T14:23:33;1.91;70.90
70214;DHT22;60138;55.808;37.078;2023-03-30T14:28:45;2.06;70.42
70214;DHT22;60138;55.808;37.078;2023-03-30T14:31:18;2.08;69.86
70214;DHT22;60138;55.808;37.078;2023-03-30T14:33:44;2.14;70.16
70214;DHT22;60138;55.808;37.078;2023-03-30T14:36:14;2.10;69.40
70214;DHT22;60138;55.808;37.078;2023-03-30T14:38:42;2.11;69.74
70214;DHT22;60138;55.808;37.078;2023-03-30T14:41:27;2.08;69.67
70214;DHT22;60138;55.808;37.078;2023-03-30T14:43:55;2.13;70.12
70214;DHT22;60138;55.808;37.078;2023-03-30T14:46:24;2.13;70.12
70214;DHT22;60138;55.808;37.078;2023-03-30T14:48:51;2.09;69.75
70214;DHT22;60138;55.808;37.078;2023-03-30T14:51:26;2.02;70.17
70214;DHT22;60138;55.808;37.078;2023-03-30T14:53:58;2.02;69.88
70214;DHT22;60138;55.808;37.078;2023-03-30T14:56:24;2.02;69.61
70214;DHT22;60138;55.808;37.078;2023-03-30T14:58:51;1.96;69.58
70214;DHT22;60138;55.808;37.078;2023-03-30T15:01:23;1.86;69.65
70214;DHT22;60138;55.808;37.078;2023-03-30T15:03:51;1.90;70.11
70214;DHT22;60138;55.808;37.078;2023-03-30T15:06:22;1.79;69.99
70214;DHT22;60138;55.808;37.078;2023-03-30T15:08:48;1.79;69.91
70214;DHT22;60138;55.808;37.078;2023-03-30T15:11:24;1.72;70.55
70214;DHT22;60138;55.808;37.078;2023-03-30T15:13:52;1.81;70.14
70214;DHT22;60138;55.808;37.078;2023-03-30T15:16:22;1.84;70.05
70214;DHT22;60138;55.808;37.078;2023-03-30T15:18:51;1.88;69.85
70214;DHT22;60138;55.808;37.078;2023-03-30T15:21:18;1.87;70.07
70214;DHT22;60138;55.808;37.078;2023-03-30T15:23:46;1.88;70.00
70214;DHT22;60138;55.808;37.078;2023-03-30T15:26:13;1.91;69.72
70214;DHT22;60138;55.808;37.078;2023-03-30T15:28:49;1.90;69.59
70214;DHT22;60138;55.808;37.078;2023-03-30T15:31:15;1.83;70.08
70214;DHT22;60138;55.808;37.078;2023-03-30T15:33:45;1.83;70.10
70214;DHT22;60138;55.808;37.078;2023-03-30T15:36:18;1.82;70.24
70214;DHT22;60138;55.808;37.078;2023-03-30T15:38:53;1.84;70.29
70214;DHT22;60138;55.808;37.078;2023-03-30T15:41:23;1.83;70.09
70214;DHT22;60138;55.808;37.078;2023-03-30T15:44:18;1.78;70.99
70214;DHT22;60138;55.808;37.078;2023-03-30T15:46:44;1.78;70.87
70214;DHT22;60138;55.808;37.078;2023-03-30T15:49:13;1.73;71.61
70214;DHT22;60138;55.808;37.078;2023-03-30T15:51:47;1.72;71.38
70214;DHT22;60138;55.808;37.078;2023-03-30T15:54:32;1.73;70.38
70214;DHT22;60138;55.808;37.078;2023-03-30T15:57:49;1.64;71.29
70214;DHT22;60138;55.808;37.078;2023-03-30T15:59:56;1.63;71.41
70214;DHT22;60138;55.808;37.078;2023-03-30T16:04:59;1.48;71.96
70214;DHT22;60138;55.808;37.078;2023-03-30T16:07:25;1.47;72.40
70214;DHT22;60138;55.808;37.078;2023-03-30T16:09:51;1.50;71.70
70214;DHT22;60138;55.808;37.078;2023-03-30T16:12:20;1.46;72.11
70214;DHT22;60138;55.808;37.078;2023-03-30T16:14:47;1.42;72.38
70214;DHT22;60138;55.808;37.078;2023-03-30T16:17:13;1.36;72.75
70214;DHT22;60138;55.808;37.078;2023-03-30T16:19:39;1.36;72.16
70214;DHT22;60138;55.808;37.078;2023-03-30T16:22:05;1.33;71.93
70214;DHT22;60138;55.808;37.078;2023-03-30T16:24:31;1.33;72.02
70214;DHT22;60138;55.808;37.078;2023-03-30T16:26:57;1.39;71.42
70214;DHT22;60138;55.808;37.078;2023-03-30T16:29:23;1.36;71.58
70214;DHT22;60138;55.808;37.078;2023-03-30T16:31:50;1.34;71.58
70214;DHT22;60138;55.808;37.078;2023-03-30T16:34:16;1.33;72.16
70214;DHT22;60138;55.808;37.078;2023-03-30T16:36:42;1.34;72.08
70214;DHT22;60138;55.808;37.078;2023-03-30T16:39:25;1.38;71.98
70214;DHT22;60138;55.808;37.078;2023-03-30T16:41:51;1.39;71.89
70214;DHT22;60138;55.808;37.078;2023-03-30T16:44:19;1.41;71.29
70214;DHT22;60138;55.808;37.078;2023-03-30T16:46:45;1.38;71.48
70214;DHT22;60138;55.808;37.078;2023-03-30T16:49:17;1.40;70.91
70214;DHT22;60138;55.808;37.078;2023-03-30T16:51:44;1.37;70.86
70214;DHT22;60138;55.808;37.078;2023-03-30T16:54:09;1.39;71.22
70214;DHT22;60138;55.808;37.078;2023-03-30T16:56:36;1.33;70.77
70214;DHT22;60138;55.808;37.078;2023-03-30T16:59:03;1.28;70.93
70214;DHT22;60138;55.808;37.078;2023-03-30T17:01:29;1.33;71.31
70214;DHT22;60138;55.808;37.078;2023-03-30T17:03:55;1.29;71.38
70214;DHT22;60138;55.808;37.078;2023-03-30T17:06:20;1.31;71.10
70214;DHT22;60138;55.808;37.078;2023-03-30T17:08:47;1.28;70.99
70214;DHT22;60138;55.808;37.078;2023-03-30T17:11:13;1.27;70.79
70214;DHT22;60138;55.808;37.078;2023-03-30T17:13:39;1.26;71.08
70214;DHT22;60138;55.808;37.078;2023-03-30T17:16:05;1.29;71.16
70214;DHT22;60138;55.808;37.078;2023-03-30T17:18:31;1.22;70.92
70214;DHT22;60138;55.808;37.078;2023-03-30T17:20:58;1.24;71.42
70214;DHT22;60138;55.808;37.078;2023-03-30T17:23:26;1.26;71.58
70214;DHT22;60138;55.808;37.078;2023-03-30T17:25:53;1.26;71.22
70214;DHT22;60138;55.808;37.078;2023-03-30T17:28:20;1.23;71.42
70214;DHT22;60138;55.808;37.078;2023-03-30T17:30:47;1.19;71.84
70214;DHT22;60138;55.808;37.078;2023-03-30T17:33:13;1.19;71.81
70214;DHT22;60138;55.808;37.078;2023-03-30T17:35:39;1.19;71.87
70214;DHT22;60138;55.808;37.078;2023-03-30T17:38:06;1.23;71.45
70214;DHT22;60138;55.808;37.078;2023-03-30T17:40:31;1.19;71.93
70214;DHT22;60138;55.808;37.078;2023-03-30T17:42:57;1.17;72.19
70214;DHT22;60138;55.808;37.078;2023-03-30T17:45:25;1.18;71.94
70214;DHT22;60138;55.808;37.078;2023-03-30T17:47:51;1.18;71.97
70214;DHT22;60138;55.808;37.078;2023-03-30T17:50:36;1.14;72.16
70214;DHT22;60138;55.808;37.078;2023-03-30T17:53:02;1.12;72.14
70214;DHT22;60138;55.808;37.078;2023-03-30T17:55:31;1.14;72.35
70214;DHT22;60138;55.808;37.078;2023-03-30T17:57:58;1.13;72.27
70214;DHT22;60138;55.808;37.078;2023-03-30T18:00:25;1.09;72.70
70214;DHT22;60138;55.808;37.078;2023-03-30T18:02:52;1.09;72.63
70214;DHT22;60138;55.808;37.078;2023-03-30T18:05:19;1.08;72.67
70214;DHT22;60138;55.808;37.078;2023-03-30T18:07:45;1.11;72.46
70214;DHT22;60138;55.808;37.078;2023-03-30T18:10:15;1.06;72.86
70214;DHT22;60138;55.808;37.078;2023-03-30T18:12:41;1.06;73.27
70214;DHT22;60138;55.808;37.078;2023-03-30T18:15:07;1.08;73.03
70214;DHT22;60138;55.808;37.078;2023-03-30T18:17:33;1.09;72.18
70214;DHT22;60138;55.808;37.078;2023-03-30T18:19:58;1.08;71.90
70214;DHT22;60138;55.808;37.078;2023-03-30T18:22:24;1.08;72.25
70214;DHT22;60138;55.808;37.078;2023-03-30T18:24:50;1.07;72.39
70214;DHT22;60138;55.808;37.078;2023-03-30T18:27:16;1.04;72.40
70214;DHT22;60138;55.808;37.078;2023-03-30T18:29:42;1.06;72.51
70214;DHT22;60138;55.808;37.078;2023-03-30T18:32:08;1.07;72.70
70214;DHT22;60138;55.808;37.078;2023-03-30T18:34:33;1.08;72.73